sensor_id;sensor_type;location;lat;lon;timestamp;P1;durP1;ratioP1;P2;durP2;ratioP2
10934;SDS011;5520;45.752;4.874;2023-04-25T00:00:28;5.07;;;3.03;;
10934;SDS011;5520;45.752;4.874;2023-04-25T00:02:56;5.33;;;3.60;;
10934;SDS011;5520;45.752;4.874;2023-04-25T00:05:26;5.63;;;3.67;;
10934;SDS011;5520;45.752;4.874;2023-04-25T00:07:56;4.90;;;3.37;;
10934;SDS011;5520;45.752;4.874;2023-04-25T00:10:24;7.30;;;3.23;;
10934;SDS011;5520;45.752;4.874;2023-04-25T00:12:52;6.30;;;3.63;;
10934;SDS011;5520;45.752;4.874;2023-04-25T00:15:22;5.10;;;3.40;;
10934;SDS011;5520;45.752;4.874;2023-04-25T00:17:50;5.37;;;2.87;;
10934;SDS011;5520;45.752;4.874;2023-04-25T00:20:19;3.60;;;2.93;;
10934;SDS011;5520;45.752;4.874;2023-04-25T00:22:48;6.20;;;3.60;;
10934;SDS011;5520;45.752;4.874;2023-04-25T00:25:16;4.27;;;3.77;;
10934;SDS011;5520;45.752;4.874;2023-04-25T00:27:44;5.20;;;3.00;;
10934;SDS011;5520;45.752;4.874;2023-04-25T00:30:12;5.13;;;3.07;;
10934;SDS011;5520;45.752;4.874;2023-04-25T00:32:42;4.17;;;2.93;;
10934;SDS011;5520;45.752;4.874;2023-04-25T00:35:10;5.70;;;2.90;;
10934;SDS011;5520;45.752;4.874;2023-04-25T00:37:38;4.83;;;3.33;;
10934;SDS011;5520;45.752;4.874;2023-04-25T00:40:06;3.37;;;3.00;;
10934;SDS011;5520;45.752;4.874;2023-04-25T00:42:35;3.77;;;2.83;;
10934;SDS011;5520;45.752;4.874;2023-04-25T00:45:04;3.53;;;2.83;;
10934;SDS011;5520;45.752;4.874;2023-04-25T00:47:35;3.70;;;3.30;;
10934;SDS011;5520;45.752;4.874;2023-04-25T00:50:06;4.47;;;2.87;;
10934;SDS011;5520;45.752;4.874;2023-04-25T00:52:35;7.47;;;3.87;;
10934;SDS011;5520;45.752;4.874;2023-04-25T00:55:03;5.00;;;2.60;;
10934;SDS011;5520;45.752;4.874;2023-04-25T00:57:31;5.43;;;3.00;;
10934;SDS011;5520;45.752;4.874;2023-04-25T00:59:59;5.13;;;2.70;;
10934;SDS011;5520;45.752;4.874;2023-04-25T01:02:27;4.50;;;2.87;;
10934;SDS011;5520;45.752;4.874;2023-04-25T01:04:56;5.20;;;2.97;;
10934;SDS011;5520;45.752;4.874;2023-04-25T01:07:25;6.37;;;2.70;;
10934;SDS011;5520;45.752;4.874;2023-04-25T01:09:53;3.67;;;2.50;;
10934;SDS011;5520;45.752;4.874;2023-04-25T01:12:21;3.77;;;2.47;;
10934;SDS011;5520;45.752;4.874;2023-04-25T01:14:49;6.07;;;3.00;;
10934;SDS011;5520;45.752;4.874;2023-04-25T01:17:18;5.00;;;3.07;;
10934;SDS011;5520;45.752;4.874;2023-04-25T01:19:46;6.67;;;2.87;;
10934;SDS011;5520;45.752;4.874;2023-04-25T01:22:16;3.03;;;2.47;;
10934;SDS011;5520;45.752;4.874;2023-04-25T01:24:44;6.60;;;3.27;;
10934;SDS011;5520;45.752;4.874;2023-04-25T01:27:13;3.13;;;2.57;;
10934;SDS011;5520;45.752;4.874;2023-04-25T01:29:41;3.77;;;2.40;;
10934;SDS011;5520;45.752;4.874;2023-04-25T01:32:09;4.77;;;3.20;;
10934;SDS011;5520;45.752;4.874;2023-04-25T01:34:37;3.83;;;2.67;;
10934;SDS011;5520;45.752;4.874;2023-04-25T01:37:05;4.00;;;2.57;;
10934;SDS011;5520;45.752;4.874;2023-04-25T01:39:34;6.03;;;2.53;;
10934;SDS011;5520;45.752;4.874;2023-04-25T01:42:02;4.23;;;2.27;;
10934;SDS011;5520;45.752;4.874;2023-04-25T01:44:31;3.90;;;2.77;;
10934;SDS011;5520;45.752;4.874;2023-04-25T01:46:59;6.03;;;2.80;;
10934;SDS011;5520;45.752;4.874;2023-04-25T01:49:26;4.70;;;2.27;;
10934;SDS011;5520;45.752;4.874;2023-04-25T01:51:54;3.80;;;2.70;;
10934;SDS011;5520;45.752;4.874;2023-04-25T01:54:22;6.00;;;2.70;;
10934;SDS011;5520;45.752;4.874;2023-04-25T01:56:52;3.50;;;2.43;;
10934;SDS011;5520;45.752;4.874;2023-04-25T01:59:20;5.00;;;2.40;;
10934;SDS011;5520;45.752;4.874;2023-04-25T02:01:48;3.60;;;2.67;;
10934;SDS011;5520;45.752;4.874;2023-04-25T02:04:16;4.33;;;2.47;;
10934;SDS011;5520;45.752;4.874;2023-04-25T02:06:44;2.30;;;2.10;;
10934;SDS011;5520;45.752;4.874;2023-04-25T02:09:12;3.87;;;3.57;;
10934;SDS011;5520;45.752;4.874;2023-04-25T02:11:40;4.47;;;2.33;;
10934;SDS011;5520;45.752;4.874;2023-04-25T02:14:10;8.27;;;2.53;;
10934;SDS011;5520;45.752;4.874;2023-04-25T02:16:38;5.37;;;2.40;;
10934;SDS011;5520;45.752;4.874;2023-04-25T02:19:06;4.00;;;2.03;;
10934;SDS011;5520;45.752;4.874;2023-04-25T02:21:34;5.30;;;2.50;;
10934;SDS011;5520;45.752;4.874;2023-04-25T02:24:02;4.57;;;2.67;;
10934;SDS011;5520;45.752;4.874;2023-04-25T02:26:30;3.40;;;2.33;;
10934;SDS011;5520;45.752;4.874;2023-04-25T02:28:58;3.73;;;2.37;;
10934;SDS011;5520;45.752;4.874;2023-04-25T02:31:27;3.97;;;2.20;;
10934;SDS011;5520;45.752;4.874;2023-04-25T02:33:55;6.43;;;2.50;;
10934;SDS011;5520;45.752;4.874;2023-04-25T02:36:23;2.73;;;2.10;;
10934;SDS011;5520;45.752;4.874;2023-04-25T02:38:52;4.80;;;2.37;;
10934;SDS011;5520;45.752;4.874;2023-04-25T02:41:20;3.63;;;2.43;;
10934;SDS011;5520;45.752;4.874;2023-04-25T02:43:48;3.30;;;2.27;;
10934;SDS011;5520;45.752;4.874;2023-04-25T02:46:17;2.37;;;2.13;;
10934;SDS011;5520;45.752;4.874;2023-04-25T02:49:05;4.37;;;2.77;;
10934;SDS011;5520;45.752;4.874;2023-04-25T02:51:33;4.37;;;2.00;;
10934;SDS011;5520;45.752;4.874;2023-04-25T02:54:01;4.53;;;2.30;;
10934;SDS011;5520;45.752;4.874;2023-04-25T02:56:29;5.07;;;2.30;;
10934;SDS011;5520;45.752;4.874;2023-04-25T02:58:57;4.83;;;2.10;;
10934;SDS011;5520;45.752;4.874;2023-04-25T03:01:25;4.77;;;2.23;;
10934;SDS011;5520;45.752;4.874;2023-04-25T03:03:53;4.40;;;1.93;;
10934;SDS011;5520;45.752;4.874;2023-04-25T03:06:23;5.53;;;1.90;;
10934;SDS011;5520;45.752;4.874;2023-04-25T03:08:50;5.33;;;2.30;;
10934;SDS011;5520;45.752;4.874;2023-04-25T03:11:18;3.60;;;2.37;;
10934;SDS011;5520;45.752;4.874;2023-04-25T03:13:47;4.27;;;1.97;;
10934;SDS011;5520;45.752;4.874;2023-04-25T03:16:15;3.93;;;2.13;;
10934;SDS011;5520;45.752;4.874;2023-04-25T03:18:43;2.47;;;1.90;;
10934;SDS011;5520;45.752;4.874;2023-04-25T03:21:11;5.77;;;2.53;;
10934;SDS011;5520;45.752;4.874;2023-04-25T03:23:41;4.17;;;2.50;;
10934;SDS011;5520;45.752;4.874;2023-04-25T03:26:09;6.87;;;2.70;;
10934;SDS011;5520;45.752;4.874;2023-04-25T03:28:36;5.10;;;2.43;;
10934;SDS011;5520;45.752;4.874;2023-04-25T03:31:06;3.73;;;2.57;;
10934;SDS011;5520;45.752;4.874;2023-04-25T03:33:34;6.40;;;2.27;;
10934;SDS011;5520;45.752;4.874;2023-04-25T03:36:02;6.50;;;2.57;;
10934;SDS011;5520;45.752;4.874;2023-04-25T03:38:30;5.67;;;2.83;;
10934;SDS011;5520;45.752;4.874;2023-04-25T03:40:59;5.73;;;2.80;;
10934;SDS011;5520;45.752;4.874;2023-04-25T03:43:27;6.43;;;2.67;;
10934;SDS011;5520;45.752;4.874;2023-04-25T03:45:55;3.73;;;2.20;;
10934;SDS011;5520;45.752;4.874;2023-04-25T03:48:23;4.07;;;2.17;;
10934;SDS011;5520;45.752;4.874;2023-04-25T03:50:52;4.63;;;2.50;;
10934;SDS011;5520;45.752;4.874;2023-04-25T03:53:20;5.30;;;2.53;;
10934;SDS011;5520;45.752;4.874;2023-04-25T03:55:48;3.80;;;1.80;;
10934;SDS011;5520;45.752;4.874;2023-04-25T03:58:18;6.83;;;2.40;;
10934;SDS011;5520;45.752;4.874;2023-04-25T04:00:46;3.87;;;2.20;;
10934;SDS011;5520;45.752;4.874;2023-04-25T04:03:13;4.77;;;3.17;;
10934;SDS011;5520;45.752;4.874;2023-04-25T04:05:42;3.73;;;2.37;;
10934;SDS011;5520;45.752;4.874;2023-04-25T04:08:10;6.03;;;2.80;;
10934;SDS011;5520;45.752;4.874;2023-04-25T04:10:38;4.47;;;2.57;;
10934;SDS011;5520;45.752;4.874;2023-04-25T04:13:06;3.87;;;2.47;;
10934;SDS011;5520;45.752;4.874;2023-04-25T04:15:36;4.07;;;2.53;;
10934;SDS011;5520;45.752;4.874;2023-04-25T04:18:04;4.97;;;2.03;;
10934;SDS011;5520;45.752;4.874;2023-04-25T04:20:32;4.73;;;2.60;;
10934;SDS011;5520;45.752;4.874;2023-04-25T04:23:01;3.10;;;2.20;;
10934;SDS011;5520;45.752;4.874;2023-04-25T04:25:29;4.93;;;2.40;;
10934;SDS011;5520;45.752;4.874;2023-04-25T04:27:57;4.13;;;2.50;;
10934;SDS011;5520;45.752;4.874;2023-04-25T04:30:25;4.30;;;2.40;;
10934;SDS011;5520;45.752;4.874;2023-04-25T04:32:57;5.50;;;2.70;;
10934;SDS011;5520;45.752;4.874;2023-04-25T04:35:25;4.27;;;2.60;;
10934;SDS011;5520;45.752;4.874;2023-04-25T04:37:53;6.93;;;2.77;;
10934;SDS011;5520;45.752;4.874;2023-04-25T04:40:21;6.87;;;3.00;;
10934;SDS011;5520;45.752;4.874;2023-04-25T04:42:49;4.43;;;2.80;;
10934;SDS011;5520;45.752;4.874;2023-04-25T04:45:17;4.77;;;2.80;;
10934;SDS011;5520;45.752;4.874;2023-04-25T04:47:45;3.70;;;2.87;;
10934;SDS011;5520;45.752;4.874;2023-04-25T04:50:16;7.10;;;3.07;;
10934;SDS011;5520;45.752;4.874;2023-04-25T04:52:44;5.47;;;2.80;;
10934;SDS011;5520;45.752;4.874;2023-04-25T04:55:12;4.27;;;2.73;;
10934;SDS011;5520;45.752;4.874;2023-04-25T04:57:40;4.13;;;3.00;;
10934;SDS011;5520;45.752;4.874;2023-04-25T05:00:09;5.30;;;3.50;;
10934;SDS011;5520;45.752;4.874;2023-04-25T05:02:37;3.73;;;2.70;;
10934;SDS011;5520;45.752;4.874;2023-04-25T05:05:06;7.80;;;3.73;;
10934;SDS011;5520;45.752;4.874;2023-04-25T05:07:36;6.47;;;3.17;;
10934;SDS011;5520;45.752;4.874;2023-04-25T05:10:04;4.83;;;3.20;;
10934;SDS011;5520;45.752;4.874;2023-04-25T05:12:33;6.20;;;3.87;;
10934;SDS011;5520;45.752;4.874;2023-04-25T05:15:02;4.23;;;3.20;;
10934;SDS011;5520;45.752;4.874;2023-04-25T05:17:30;6.97;;;3.77;;
10934;SDS011;5520;45.752;4.874;2023-04-25T05:19:59;6.47;;;3.03;;
10934;SDS011;5520;45.752;4.874;2023-04-25T05:22:27;3.90;;;3.00;;
10934;SDS011;5520;45.752;4.874;2023-04-25T05:24:56;6.20;;;3.30;;
10934;SDS011;5520;45.752;4.874;2023-04-25T05:27:24;8.37;;;4.17;;
10934;SDS011;5520;45.752;4.874;2023-04-25T05:29:52;6.13;;;3.23;;
10934;SDS011;5520;45.752;4.874;2023-04-25T05:32:21;7.80;;;3.43;;
10934;SDS011;5520;45.752;4.874;2023-04-25T05:34:49;4.13;;;3.13;;
10934;SDS011;5520;45.752;4.874;2023-04-25T05:37:17;5.40;;;3.63;;
10934;SDS011;5520;45.752;4.874;2023-04-25T05:39:45;7.53;;;3.87;;
10934;SDS011;5520;45.752;4.874;2023-04-25T05:42:14;5.20;;;3.77;;
10934;SDS011;5520;45.752;4.874;2023-04-25T05:44:42;9.83;;;3.40;;
10934;SDS011;5520;45.752;4.874;2023-04-25T05:47:11;5.83;;;3.87;;
10934;SDS011;5520;45.752;4.874;2023-04-25T05:49:39;5.97;;;4.00;;
10934;SDS011;5520;45.752;4.874;2023-04-25T05:52:07;4.50;;;3.60;;
10934;SDS011;5520;45.752;4.874;2023-04-25T05:54:34;4.77;;;3.63;;
10934;SDS011;5520;45.752;4.874;2023-04-25T05:57:02;6.27;;;3.23;;
10934;SDS011;5520;45.752;4.874;2023-04-25T05:59:32;5.03;;;3.33;;
10934;SDS011;5520;45.752;4.874;2023-04-25T06:02:00;9.00;;;3.57;;
10934;SDS011;5520;45.752;4.874;2023-04-25T06:04:28;5.77;;;3.13;;
10934;SDS011;5520;45.752;4.874;2023-04-25T06:06:56;5.07;;;3.20;;
10934;SDS011;5520;45.752;4.874;2023-04-25T06:09:24;8.23;;;4.40;;
10934;SDS011;5520;45.752;4.874;2023-04-25T06:11:52;6.53;;;3.70;;
10934;SDS011;5520;45.752;4.874;2023-04-25T06:14:20;7.13;;;3.20;;
10934;SDS011;5520;45.752;4.874;2023-04-25T06:16:50;4.37;;;3.53;;
10934;SDS011;5520;45.752;4.874;2023-04-25T06:19:18;4.10;;;3.10;;
10934;SDS011;5520;45.752;4.874;2023-04-25T06:21:46;6.67;;;3.37;;
10934;SDS011;5520;45.752;4.874;2023-04-25T06:24:14;5.37;;;3.03;;
10934;SDS011;5520;45.752;4.874;2023-04-25T06:26:42;3.57;;;3.17;;
10934;SDS011;5520;45.752;4.874;2023-04-25T06:29:10;4.20;;;3.43;;
10934;SDS011;5520;45.752;4.874;2023-04-25T06:31:38;6.77;;;3.90;;
10934;SDS011;5520;45.752;4.874;2023-04-25T06:34:08;6.67;;;3.50;;
10934;SDS011;5520;45.752;4.874;2023-04-25T06:36:36;7.40;;;4.03;;
10934;SDS011;5520;45.752;4.874;2023-04-25T06:39:04;5.83;;;3.17;;
10934;SDS011;5520;45.752;4.874;2023-04-25T06:41:32;6.17;;;3.90;;
10934;SDS011;5520;45.752;4.874;2023-04-25T06:44:00;10.90;;;3.40;;
10934;SDS011;5520;45.752;4.874;2023-04-25T06:46:28;7.40;;;3.40;;
10934;SDS011;5520;45.752;4.874;2023-04-25T06:48:56;8.17;;;3.93;;
10934;SDS011;5520;45.752;4.874;2023-04-25T06:51:25;6.53;;;4.10;;
10934;SDS011;5520;45.752;4.874;2023-04-25T06:53:55;7.43;;;3.37;;
10934;SDS011;5520;45.752;4.874;2023-04-25T06:56:23;9.43;;;4.13;;
10934;SDS011;5520;45.752;4.874;2023-04-25T06:58:51;5.53;;;3.30;;
10934;SDS011;5520;45.752;4.874;2023-04-25T07:01:19;5.63;;;4.00;;
10934;SDS011;5520;45.752;4.874;2023-04-25T07:03:47;6.03;;;4.00;;
10934;SDS011;5520;45.752;4.874;2023-04-25T07:06:16;3.00;;;2.70;;
10934;SDS011;5520;45.752;4.874;2023-04-25T07:08:45;6.70;;;3.33;;
10934;SDS011;5520;45.752;4.874;2023-04-25T07:11:13;5.83;;;3.07;;
10934;SDS011;5520;45.752;4.874;2023-04-25T07:13:42;7.47;;;3.47;;
10934;SDS011;5520;45.752;4.874;2023-04-25T07:16:11;4.07;;;3.07;;
10934;SDS011;5520;45.752;4.874;2023-04-25T07:18:39;5.67;;;3.63;;
10934;SDS011;5520;45.752;4.874;2023-04-25T07:21:07;5.93;;;3.33;;
10934;SDS011;5520;45.752;4.874;2023-04-25T07:23:34;3.90;;;3.47;;
10934;SDS011;5520;45.752;4.874;2023-04-25T07:26:05;7.37;;;2.87;;
10934;SDS011;5520;45.752;4.874;2023-04-25T07:28:33;4.17;;;3.03;;
10934;SDS011;5520;45.752;4.874;2023-04-25T07:31:01;6.13;;;2.90;;
10934;SDS011;5520;45.752;4.874;2023-04-25T07:33:29;4.40;;;2.97;;
10934;SDS011;5520;45.752;4.874;2023-04-25T07:35:57;4.93;;;2.77;;
10934;SDS011;5520;45.752;4.874;2023-04-25T07:38:25;6.63;;;2.90;;
10934;SDS011;5520;45.752;4.874;2023-04-25T07:40:53;6.63;;;2.60;;
10934;SDS011;5520;45.752;4.874;2023-04-25T07:43:22;5.13;;;2.70;;
10934;SDS011;5520;45.752;4.874;2023-04-25T07:45:50;6.37;;;2.70;;
10934;SDS011;5520;45.752;4.874;2023-04-25T07:48:18;5.83;;;2.73;;
10934;SDS011;5520;45.752;4.874;2023-04-25T07:50:46;3.07;;;2.70;;
10934;SDS011;5520;45.752;4.874;2023-04-25T07:53:14;4.13;;;2.90;;
10934;SDS011;5520;45.752;4.874;2023-04-25T07:55:44;2.90;;;2.10;;
10934;SDS011;5520;45.752;4.874;2023-04-25T07:58:12;7.77;;;2.70;;
10934;SDS011;5520;45.752;4.874;2023-04-25T08:00:43;3.90;;;2.40;;
10934;SDS011;5520;45.752;4.874;2023-04-25T08:03:11;4.77;;;2.70;;
10934;SDS011;5520;45.752;4.874;2023-04-25T08:05:39;5.10;;;2.50;;
10934;SDS011;5520;45.752;4.874;2023-04-25T08:08:07;3.03;;;2.30;;
10934;SDS011;5520;45.752;4.874;2023-04-25T08:10:35;3.50;;;2.40;;
10934;SDS011;5520;45.752;4.874;2023-04-25T08:13:03;5.03;;;2.10;;
10934;SDS011;5520;45.752;4.874;2023-04-25T08:15:31;5.50;;;2.47;;
10934;SDS011;5520;45.752;4.874;2023-04-25T08:18:00;4.07;;;2.40;;
10934;SDS011;5520;45.752;4.874;2023-04-25T08:20:29;3.80;;;2.87;;
10934;SDS011;5520;45.752;4.874;2023-04-25T08:22:57;5.37;;;2.30;;
10934;SDS011;5520;45.752;4.874;2023-04-25T08:25:25;2.07;;;1.90;;
10934;SDS011;5520;45.752;4.874;2023-04-25T08:27:53;3.47;;;2.03;;
10934;SDS011;5520;45.752;4.874;2023-04-25T08:30:21;4.20;;;2.43;;
10934;SDS011;5520;45.752;4.874;2023-04-25T08:32:49;3.67;;;2.03;;
10934;SDS011;5520;45.752;4.874;2023-04-25T08:35:19;3.83;;;2.17;;
10934;SDS011;5520;45.752;4.874;2023-04-25T08:37:47;2.63;;;2.00;;
10934;SDS011;5520;45.752;4.874;2023-04-25T08:40:15;5.27;;;2.00;;
10934;SDS011;5520;45.752;4.874;2023-04-25T08:42:43;5.37;;;2.60;;
10934;SDS011;5520;45.752;4.874;2023-04-25T08:45:15;3.67;;;2.30;;
10934;SDS011;5520;45.752;4.874;2023-04-25T08:47:43;7.70;;;2.10;;
10934;SDS011;5520;45.752;4.874;2023-04-25T08:50:12;3.10;;;2.03;;
10934;SDS011;5520;45.752;4.874;2023-04-25T08:52:43;4.70;;;2.17;;
10934;SDS011;5520;45.752;4.874;2023-04-25T08:55:11;5.07;;;2.50;;
10934;SDS011;5520;45.752;4.874;2023-04-25T08:57:40;4.97;;;2.00;;
10934;SDS011;5520;45.752;4.874;2023-04-25T09:00:09;8.43;;;2.60;;
10934;SDS011;5520;45.752;4.874;2023-04-25T09:02:38;4.00;;;1.83;;
10934;SDS011;5520;45.752;4.874;2023-04-25T09:05:07;3.47;;;1.70;;
10934;SDS011;5520;45.752;4.874;2023-04-25T09:07:36;5.27;;;1.90;;
10934;SDS011;5520;45.752;4.874;2023-04-25T09:10:06;4.97;;;3.00;;
10934;SDS011;5520;45.752;4.874;2023-04-25T09:12:34;4.03;;;2.00;;
10934;SDS011;5520;45.752;4.874;2023-04-25T09:15:03;3.93;;;1.60;;
10934;SDS011;5520;45.752;4.874;2023-04-25T09:17:32;3.87;;;1.70;;
10934;SDS011;5520;45.752;4.874;2023-04-25T09:20:07;1.60;;;1.50;;
10934;SDS011;5520;45.752;4.874;2023-04-25T09:22:35;2.50;;;1.63;;
10934;SDS011;5520;45.752;4.874;2023-04-25T09:25:07;2.00;;;1.43;;
10934;SDS011;5520;45.752;4.874;2023-04-25T09:27:37;3.57;;;2.17;;
10934;SDS011;5520;45.752;4.874;2023-04-25T09:30:16;2.17;;;1.50;;
10934;SDS011;5520;45.752;4.874;2023-04-25T09:32:44;4.00;;;2.10;;
10934;SDS011;5520;45.752;4.874;2023-04-25T09:35:12;6.40;;;1.87;;
10934;SDS011;5520;45.752;4.874;2023-04-25T09:37:50;1.87;;;1.60;;
10934;SDS011;5520;45.752;4.874;2023-04-25T09:40:18;2.80;;;1.60;;
10934;SDS011;5520;45.752;4.874;2023-04-25T09:42:48;6.87;;;1.60;;
10934;SDS011;5520;45.752;4.874;2023-04-25T09:45:16;2.97;;;1.57;;
10934;SDS011;5520;45.752;4.874;2023-04-25T09:47:44;2.60;;;1.40;;
10934;SDS011;5520;45.752;4.874;2023-04-25T09:50:13;4.07;;;1.57;;
10934;SDS011;5520;45.752;4.874;2023-04-25T09:52:42;3.80;;;1.57;;
10934;SDS011;5520;45.752;4.874;2023-04-25T09:55:11;2.30;;;1.63;;
10934;SDS011;5520;45.752;4.874;2023-04-25T09:57:39;4.17;;;1.93;;
10934;SDS011;5520;45.752;4.874;2023-04-25T10:00:09;1.90;;;1.60;;
10934;SDS011;5520;45.752;4.874;2023-04-25T10:02:39;2.30;;;1.57;;
10934;SDS011;5520;45.752;4.874;2023-04-25T10:05:09;17.17;;;8.13;;
10934;SDS011;5520;45.752;4.874;2023-04-25T10:07:38;4.40;;;2.10;;
10934;SDS011;5520;45.752;4.874;2023-04-25T10:10:07;3.77;;;1.63;;
10934;SDS011;5520;45.752;4.874;2023-04-25T10:12:35;2.07;;;1.30;;
10934;SDS011;5520;45.752;4.874;2023-04-25T10:15:03;2.53;;;1.37;;
10934;SDS011;5520;45.752;4.874;2023-04-25T10:17:33;1.80;;;1.70;;
10934;SDS011;5520;45.752;4.874;2023-04-25T10:20:01;4.53;;;1.90;;
10934;SDS011;5520;45.752;4.874;2023-04-25T10:22:32;4.53;;;2.93;;
10934;SDS011;5520;45.752;4.874;2023-04-25T10:25:01;4.53;;;2.60;;
10934;SDS011;5520;45.752;4.874;2023-04-25T10:27:30;3.30;;;1.77;;
10934;SDS011;5520;45.752;4.874;2023-04-25T10:30:02;2.50;;;1.97;;
10934;SDS011;5520;45.752;4.874;2023-04-25T10:32:33;3.93;;;1.70;;
10934;SDS011;5520;45.752;4.874;2023-04-25T10:35:10;2.20;;;1.30;;
10934;SDS011;5520;45.752;4.874;2023-04-25T10:37:38;3.90;;;2.30;;
10934;SDS011;5520;45.752;4.874;2023-04-25T10:40:23;4.03;;;1.50;;
10934;SDS011;5520;45.752;4.874;2023-04-25T10:42:52;2.07;;;1.33;;
10934;SDS011;5520;45.752;4.874;2023-04-25T10:45:20;2.20;;;1.50;;
10934;SDS011;5520;45.752;4.874;2023-04-25T10:47:49;4.00;;;2.13;;
10934;SDS011;5520;45.752;4.874;2023-04-25T10:50:18;5.30;;;1.40;;
10934;SDS011;5520;45.752;4.874;2023-04-25T10:52:49;2.60;;;1.40;;
10934;SDS011;5520;45.752;4.874;2023-04-25T10:55:17;7.70;;;1.90;;
10934;SDS011;5520;45.752;4.874;2023-04-25T10:57:45;1.80;;;1.30;;
10934;SDS011;5520;45.752;4.874;2023-04-25T11:00:15;3.00;;;1.50;;
10934;SDS011;5520;45.752;4.874;2023-04-25T11:02:44;2.87;;;1.40;;
10934;SDS011;5520;45.752;4.874;2023-04-25T11:05:22;1.40;;;1.33;;
10934;SDS011;5520;45.752;4.874;2023-04-25T11:07:50;4.67;;;1.50;;
10934;SDS011;5520;45.752;4.874;2023-04-25T11:10:25;3.53;;;1.40;;
10934;SDS011;5520;45.752;4.874;2023-04-25T11:12:54;2.87;;;1.60;;
10934;SDS011;5520;45.752;4.874;2023-04-25T11:15:25;3.20;;;1.53;;
10934;SDS011;5520;45.752;4.874;2023-04-25T11:17:53;2.47;;;1.40;;
10934;SDS011;5520;45.752;4.874;2023-04-25T11:20:25;2.07;;;1.60;;
10934;SDS011;5520;45.752;4.874;2023-04-25T11:22:56;2.83;;;1.40;;
10934;SDS011;5520;45.752;4.874;2023-04-25T11:25:25;4.10;;;1.40;;
10934;SDS011;5520;45.752;4.874;2023-04-25T11:27:53;3.10;;;1.70;;
10934;SDS011;5520;45.752;4.874;2023-04-25T11:30:25;3.23;;;1.33;;
10934;SDS011;5520;45.752;4.874;2023-04-25T11:32:54;2.67;;;1.57;;
10934;SDS011;5520;45.752;4.874;2023-04-25T11:35:23;2.00;;;1.57;;
10934;SDS011;5520;45.752;4.874;2023-04-25T11:37:55;3.40;;;1.70;;
10934;SDS011;5520;45.752;4.874;2023-04-25T11:40:39;3.10;;;1.60;;
10934;SDS011;5520;45.752;4.874;2023-04-25T11:43:10;2.63;;;1.50;;
10934;SDS011;5520;45.752;4.874;2023-04-25T11:45:50;1.60;;;1.33;;
10934;SDS011;5520;45.752;4.874;2023-04-25T11:48:19;3.07;;;1.30;;
10934;SDS011;5520;45.752;4.874;2023-04-25T11:50:53;1.30;;;1.20;;
10934;SDS011;5520;45.752;4.874;2023-04-25T11:53:21;1.57;;;1.43;;
10934;SDS011;5520;45.752;4.874;2023-04-25T11:55:51;3.33;;;1.57;;
10934;SDS011;5520;45.752;4.874;2023-04-25T11:58:19;1.93;;;1.70;;
10934;SDS011;5520;45.752;4.874;2023-04-25T12:00:47;1.30;;;1.20;;
10934;SDS011;5520;45.752;4.874;2023-04-25T12:03:19;3.13;;;1.33;;
10934;SDS011;5520;45.752;4.874;2023-04-25T12:05:50;1.40;;;1.30;;
10934;SDS011;5520;45.752;4.874;2023-04-25T12:08:20;2.00;;;1.40;;
10934;SDS011;5520;45.752;4.874;2023-04-25T12:10:48;2.30;;;1.87;;
10934;SDS011;5520;45.752;4.874;2023-04-25T12:13:20;2.33;;;2.03;;
10934;SDS011;5520;45.752;4.874;2023-04-25T12:15:48;2.27;;;1.47;;
10934;SDS011;5520;45.752;4.874;2023-04-25T12:18:18;1.40;;;1.30;;
10934;SDS011;5520;45.752;4.874;2023-04-25T12:20:46;2.17;;;1.30;;
10934;SDS011;5520;45.752;4.874;2023-04-25T12:23:15;1.77;;;1.20;;
10934;SDS011;5520;45.752;4.874;2023-04-25T12:25:44;1.60;;;1.43;;
10934;SDS011;5520;45.752;4.874;2023-04-25T12:28:14;4.17;;;2.47;;
10934;SDS011;5520;45.752;4.874;2023-04-25T12:30:54;4.03;;;1.23;;
10934;SDS011;5520;45.752;4.874;2023-04-25T12:33:24;4.83;;;1.40;;
10934;SDS011;5520;45.752;4.874;2023-04-25T12:35:52;1.80;;;1.37;;
10934;SDS011;5520;45.752;4.874;2023-04-25T12:38:21;9.00;;;5.33;;
10934;SDS011;5520;45.752;4.874;2023-04-25T12:40:50;3.10;;;2.33;;
10934;SDS011;5520;45.752;4.874;2023-04-25T12:43:18;2.53;;;1.57;;
10934;SDS011;5520;45.752;4.874;2023-04-25T12:45:47;2.43;;;1.33;;
10934;SDS011;5520;45.752;4.874;2023-04-25T12:48:15;1.57;;;1.20;;
10934;SDS011;5520;45.752;4.874;2023-04-25T12:50:43;2.30;;;1.47;;
10934;SDS011;5520;45.752;4.874;2023-04-25T12:53:11;2.00;;;1.10;;
10934;SDS011;5520;45.752;4.874;2023-04-25T12:55:39;2.10;;;1.23;;
10934;SDS011;5520;45.752;4.874;2023-04-25T12:58:09;2.73;;;1.50;;
10934;SDS011;5520;45.752;4.874;2023-04-25T13:00:37;2.20;;;1.20;;
10934;SDS011;5520;45.752;4.874;2023-04-25T13:03:05;3.27;;;1.40;;
10934;SDS011;5520;45.752;4.874;2023-04-25T13:05:33;1.90;;;1.37;;
10934;SDS011;5520;45.752;4.874;2023-04-25T13:08:01;1.93;;;1.20;;
10934;SDS011;5520;45.752;4.874;2023-04-25T13:10:30;1.30;;;1.20;;
10934;SDS011;5520;45.752;4.874;2023-04-25T13:13:00;3.70;;;1.57;;
10934;SDS011;5520;45.752;4.874;2023-04-25T13:15:30;2.60;;;1.43;;
10934;SDS011;5520;45.752;4.874;2023-04-25T13:17:58;1.70;;;1.30;;
10934;SDS011;5520;45.752;4.874;2023-04-25T13:20:26;2.87;;;1.77;;
10934;SDS011;5520;45.752;4.874;2023-04-25T13:22:54;1.43;;;1.10;;
10934;SDS011;5520;45.752;4.874;2023-04-25T13:25:22;1.20;;;1.10;;
10934;SDS011;5520;45.752;4.874;2023-04-25T13:27:51;1.37;;;1.00;;
10934;SDS011;5520;45.752;4.874;2023-04-25T13:30:19;6.50;;;1.30;;
10934;SDS011;5520;45.752;4.874;2023-04-25T13:32:48;2.60;;;1.10;;
10934;SDS011;5520;45.752;4.874;2023-04-25T13:35:17;2.40;;;1.10;;
10934;SDS011;5520;45.752;4.874;2023-04-25T13:37:45;2.77;;;1.40;;
10934;SDS011;5520;45.752;4.874;2023-04-25T13:40:13;1.90;;;1.23;;
10934;SDS011;5520;45.752;4.874;2023-04-25T13:42:41;3.63;;;1.60;;
10934;SDS011;5520;45.752;4.874;2023-04-25T13:45:10;2.30;;;2.00;;
10934;SDS011;5520;45.752;4.874;2023-04-25T13:47:38;3.70;;;1.50;;
10934;SDS011;5520;45.752;4.874;2023-04-25T13:50:09;4.10;;;1.57;;
10934;SDS011;5520;45.752;4.874;2023-04-25T13:52:37;1.20;;;1.10;;
10934;SDS011;5520;45.752;4.874;2023-04-25T13:55:05;3.17;;;1.33;;
10934;SDS011;5520;45.752;4.874;2023-04-25T13:57:33;4.43;;;1.40;;
10934;SDS011;5520;45.752;4.874;2023-04-25T14:00:04;3.97;;;1.40;;
10934;SDS011;5520;45.752;4.874;2023-04-25T14:02:35;1.23;;;1.13;;
10934;SDS011;5520;45.752;4.874;2023-04-25T14:05:03;2.40;;;1.20;;
10934;SDS011;5520;45.752;4.874;2023-04-25T14:07:34;2.97;;;1.30;;
10934;SDS011;5520;45.752;4.874;2023-04-25T14:10:02;1.97;;;1.30;;
10934;SDS011;5520;45.752;4.874;2023-04-25T14:12:32;1.67;;;1.27;;
10934;SDS011;5520;45.752;4.874;2023-04-25T14:15:00;2.03;;;1.30;;
10934;SDS011;5520;45.752;4.874;2023-04-25T14:17:28;2.93;;;1.40;;
10934;SDS011;5520;45.752;4.874;2023-04-25T14:19:56;1.97;;;1.50;;
10934;SDS011;5520;45.752;4.874;2023-04-25T14:22:24;2.10;;;1.00;;
10934;SDS011;5520;45.752;4.874;2023-04-25T14:24:54;2.27;;;1.07;;
10934;SDS011;5520;45.752;4.874;2023-04-25T14:27:22;2.43;;;1.30;;
10934;SDS011;5520;45.752;4.874;2023-04-25T14:29:53;4.90;;;1.20;;
10934;SDS011;5520;45.752;4.874;2023-04-25T14:32:21;3.70;;;1.90;;
10934;SDS011;5520;45.752;4.874;2023-04-25T14:34:49;2.77;;;1.90;;
10934;SDS011;5520;45.752;4.874;2023-04-25T14:37:17;3.03;;;1.27;;
10934;SDS011;5520;45.752;4.874;2023-04-25T14:39:45;3.67;;;1.23;;
10934;SDS011;5520;45.752;4.874;2023-04-25T14:42:14;2.53;;;1.07;;
10934;SDS011;5520;45.752;4.874;2023-04-25T14:44:42;2.40;;;1.20;;
10934;SDS011;5520;45.752;4.874;2023-04-25T14:47:10;1.53;;;1.23;;
10934;SDS011;5520;45.752;4.874;2023-04-25T14:49:38;1.33;;;0.90;;
10934;SDS011;5520;45.752;4.874;2023-04-25T14:52:06;2.90;;;1.40;;
10934;SDS011;5520;45.752;4.874;2023-04-25T14:54:34;2.77;;;1.20;;
10934;SDS011;5520;45.752;4.874;2023-04-25T14:57:02;1.10;;;1.00;;
10934;SDS011;5520;45.752;4.874;2023-04-25T14:59:32;1.10;;;1.07;;
10934;SDS011;5520;45.752;4.874;2023-04-25T15:02:00;2.23;;;1.27;;
10934;SDS011;5520;45.752;4.874;2023-04-25T15:04:29;1.20;;;1.10;;
10934;SDS011;5520;45.752;4.874;2023-04-25T15:06:57;1.83;;;0.97;;
10934;SDS011;5520;45.752;4.874;2023-04-25T15:09:25;2.97;;;0.90;;